sensor_id;sensor_type;location;lat;lon;timestamp;pressure;altitude;pressure_sealevel;temperature;humidity
9717;BME280;4897;43.570;27.832;2023-07-22T00:00:30;98965.63;;;22.24;100.00
9717;BME280;4897;43.570;27.832;2023-07-22T00:02:57;98989.75;;;22.40;100.00
9717;BME280;4897;43.570;27.832;2023-07-22T00:05:27;98968.38;;;22.37;100.00
9717;BME280;4897;43.570;27.832;2023-07-22T00:07:54;98975.50;;;22.38;100.00
9717;BME280;4897;43.570;27.832;2023-07-22T00:10:21;98965.66;;;22.37;100.00
9717;BME280;4897;43.570;27.832;2023-07-22T00:12:48;98969.00;;;22.39;100.00
9717;BME280;4897;43.570;27.832;2023-07-22T00:15:15;98962.50;;;22.47;100.00
9717;BME280;4897;43.570;27.832;2023-07-22T00:17:43;98944.28;;;22.34;100.00
9717;BME280;4897;43.570;27.832;2023-07-22T00:20:10;98946.78;;;22.42;100.00
9717;BME280;4897;43.570;27.832;2023-07-22T00:22:38;98948.91;;;22.40;100.00
9717;BME280;4897;43.570;27.832;2023-07-22T00:25:07;98894.22;;;22.09;100.00
9717;BME280;4897;43.570;27.832;2023-07-22T00:27:36;98931.91;;;22.38;100.00
9717;BME280;4897;43.570;27.832;2023-07-22T00:30:03;98930.84;;;22.39;100.00
9717;BME280;4897;43.570;27.832;2023-07-22T00:32:30;98922.69;;;22.39;100.00
9717;BME280;4897;43.570;27.832;2023-07-22T00:34:58;98916.38;;;22.39;100.00
9717;BME280;4897;43.570;27.832;2023-07-22T00:37:25;98917.84;;;22.41;100.00
9717;BME280;4897;43.570;27.832;2023-07-22T00:39:52;98927.91;;;22.41;100.00
9717;BME280;4897;43.570;27.832;2023-07-22T00:42:20;98912.63;;;22.40;100.00
9717;BME280;4897;43.570;27.832;2023-07-22T00:44:47;98918.47;;;22.43;100.00
9717;BME280;4897;43.570;27.832;2023-07-22T00:47:14;98917.88;;;22.35;100.00
9717;BME280;4897;43.570;27.832;2023-07-22T00:49:42;98910.13;;;22.32;100.00
9717;BME280;4897;43.570;27.832;2023-07-22T00:52:11;98911.16;;;22.37;100.00
9717;BME280;4897;43.570;27.832;2023-07-22T00:54:38;98891.88;;;22.32;100.00
9717;BME280;4897;43.570;27.832;2023-07-22T00:57:06;98900.69;;;22.34;100.00
9717;BME280;4897;43.570;27.832;2023-07-22T00:59:33;98888.13;;;22.33;100.00
9717;BME280;4897;43.570;27.832;2023-07-22T01:02:01;98874.91;;;22.30;100.00
9717;BME280;4897;43.570;27.832;2023-07-22T01:04:28;98864.22;;;22.22;100.00
9717;BME280;4897;43.570;27.832;2023-07-22T01:06:55;98876.19;;;22.34;100.00
9717;BME280;4897;43.570;27.832;2023-07-22T01:09:23;98881.81;;;22.39;100.00
9717;BME280;4897;43.570;27.832;2023-07-22T01:11:50;98878.91;;;22.34;100.00
9717;BME280;4897;43.570;27.832;2023-07-22T01:14:17;98874.72;;;22.25;100.00
9717;BME280;4897;43.570;27.832;2023-07-22T01:16:44;98892.31;;;22.36;100.00
9717;BME280;4897;43.570;27.832;2023-07-22T01:19:15;98899.41;;;22.30;100.00
9717;BME280;4897;43.570;27.832;2023-07-22T01:21:45;98885.16;;;22.35;100.00
9717;BME280;4897;43.570;27.832;2023-07-22T01:24:14;98856.06;;;22.22;100.00
9717;BME280;4897;43.570;27.832;2023-07-22T01:26:42;98883.50;;;22.34;100.00
9717;BME280;4897;43.570;27.832;2023-07-22T01:29:08;98882.66;;;22.33;100.00
9717;BME280;4897;43.570;27.832;2023-07-22T01:31:36;98876.59;;;22.31;100.00
9717;BME280;4897;43.570;27.832;2023-07-22T01:34:03;98883.91;;;22.31;100.00
9717;BME280;4897;43.570;27.832;2023-07-22T01:36:31;98877.22;;;22.33;100.00
9717;BME280;4897;43.570;27.832;2023-07-22T01:38:58;98859.19;;;22.32;100.00
9717;BME280;4897;43.570;27.832;2023-07-22T01:41:27;98848.94;;;22.27;100.00
9717;BME280;4897;43.570;27.832;2023-07-22T01:43:54;98858.78;;;22.28;100.00
9717;BME280;4897;43.570;27.832;2023-07-22T01:46:21;98847.03;;;22.28;100.00
9717;BME280;4897;43.570;27.832;2023-07-22T01:48:48;98840.78;;;22.27;100.00
9717;BME280;4897;43.570;27.832;2023-07-22T01:51:14;98826.94;;;22.22;100.00
9717;BME280;4897;43.570;27.832;2023-07-22T01:53:41;98845.78;;;22.24;100.00
9717;BME280;4897;43.570;27.832;2023-07-22T01:56:08;98850.59;;;22.28;100.00
9717;BME280;4897;43.570;27.832;2023-07-22T01:58:36;98839.53;;;22.23;100.00
9717;BME280;4897;43.570;27.832;2023-07-22T02:01:03;98835.94;;;22.23;100.00
9717;BME280;4897;43.570;27.832;2023-07-22T02:03:30;98836.38;;;22.20;100.00
9717;BME280;4897;43.570;27.832;2023-07-22T02:06:01;98825.69;;;22.12;100.00
9717;BME280;4897;43.570;27.832;2023-07-22T02:08:28;98845.38;;;22.27;100.00
9717;BME280;4897;43.570;27.832;2023-07-22T02:11:01;98847.47;;;22.25;100.00
9717;BME280;4897;43.570;27.832;2023-07-22T02:13:29;98846.22;;;22.21;100.00
9717;BME280;4897;43.570;27.832;2023-07-22T02:15:58;98868.81;;;22.35;100.00
9717;BME280;4897;43.570;27.832;2023-07-22T02:18:25;98846.41;;;22.26;100.00
9717;BME280;4897;43.570;27.832;2023-07-22T02:20:53;98858.53;;;22.37;100.00
9717;BME280;4897;43.570;27.832;2023-07-22T02:23:19;98833.66;;;22.13;100.00
9717;BME280;4897;43.570;27.832;2023-07-22T02:25:48;98843.28;;;22.29;100.00
9717;BME280;4897;43.570;27.832;2023-07-22T02:28:15;98855.41;;;22.33;100.00
9717;BME280;4897;43.570;27.832;2023-07-22T02:30:46;98864.22;;;22.35;100.00
9717;BME280;4897;43.570;27.832;2023-07-22T02:33:14;98867.56;;;22.37;100.00
9717;BME280;4897;43.570;27.832;2023-07-22T02:35:41;98871.75;;;22.40;100.00
9717;BME280;4897;43.570;27.832;2023-07-22T02:38:11;98871.34;;;22.36;100.00
9717;BME280;4897;43.570;27.832;2023-07-22T02:40:40;98870.06;;;22.39;100.00
9717;BME280;4897;43.570;27.832;2023-07-22T02:43:07;98883.91;;;22.37;100.00
9717;BME280;4897;43.570;27.832;2023-07-22T02:45:34;98906.97;;;22.41;100.00
9717;BME280;4897;43.570;27.832;2023-07-22T02:48:01;98937.16;;;22.46;100.00
9717;BME280;4897;43.570;27.832;2023-07-22T02:50:30;98965.66;;;22.50;100.00
9717;BME280;4897;43.570;27.832;2023-07-22T02:52:57;98966.69;;;22.49;100.00
9717;BME280;4897;43.570;27.832;2023-07-22T02:55:24;98954.75;;;22.44;100.00
9717;BME280;4897;43.570;27.832;2023-07-22T02:57:51;98950.56;;;22.48;100.00
9717;BME280;4897;43.570;27.832;2023-07-22T03:00:19;98937.78;;;22.48;100.00
9717;BME280;4897;43.570;27.832;2023-07-22T03:02:49;98932.50;;;22.53;100.00
9717;BME280;4897;43.570;27.832;2023-07-22T03:05:18;98953.50;;;22.59;100.00
9717;BME280;4897;43.570;27.832;2023-07-22T03:07:47;98887.28;;;22.26;100.00
9717;BME280;4897;43.570;27.832;2023-07-22T03:10:13;98953.31;;;22.61;100.00
9717;BME280;4897;43.570;27.832;2023-07-22T03:12:40;98953.94;;;22.63;100.00
9717;BME280;4897;43.570;27.832;2023-07-22T03:15:08;98965.69;;;22.63;100.00
9717;BME280;4897;43.570;27.832;2023-07-22T03:17:38;98958.94;;;22.59;100.00
9717;BME280;4897;43.570;27.832;2023-07-22T03:20:08;98974.44;;;22.72;100.00
9717;BME280;4897;43.570;27.832;2023-07-22T03:22:39;98967.50;;;22.82;100.00
9717;BME280;4897;43.570;27.832;2023-07-22T03:25:08;98943.81;;;22.83;100.00
9717;BME280;4897;43.570;27.832;2023-07-22T03:27:36;98938.75;;;22.86;100.00
9717;BME280;4897;43.570;27.832;2023-07-22T03:30:04;98950.25;;;23.08;100.00
9717;BME280;4897;43.570;27.832;2023-07-22T03:32:32;98939.34;;;23.08;100.00
9717;BME280;4897;43.570;27.832;2023-07-22T03:34:59;98897.44;;;22.89;100.00
9717;BME280;4897;43.570;27.832;2023-07-22T03:37:27;98935.34;;;23.17;100.00
9717;BME280;4897;43.570;27.832;2023-07-22T03:39:54;98956.91;;;23.32;100.00
9717;BME280;4897;43.570;27.832;2023-07-22T03:42:22;98961.72;;;23.30;100.00
9717;BME280;4897;43.570;27.832;2023-07-22T03:44:49;98954.41;;;23.24;100.00
9717;BME280;4897;43.570;27.832;2023-07-22T03:47:15;98941.81;;;23.23;100.00
9717;BME280;4897;43.570;27.832;2023-07-22T03:49:42;98933.78;;;23.41;100.00
9717;BME280;4897;43.570;27.832;2023-07-22T03:52:10;98923.91;;;23.46;100.00
9717;BME280;4897;43.570;27.832;2023-07-22T03:54:39;98917.16;;;23.49;100.00
9717;BME280;4897;43.570;27.832;2023-07-22T03:57:06;98900.41;;;23.39;100.00
9717;BME280;4897;43.570;27.832;2023-07-22T03:59:34;98929.66;;;23.69;100.00
9717;BME280;4897;43.570;27.832;2023-07-22T04:02:02;98942.63;;;23.74;100.00
9717;BME280;4897;43.570;27.832;2023-07-22T04:04:29;98944.66;;;23.85;100.00
9717;BME280;4897;43.570;27.832;2023-07-22T04:06:56;98941.19;;;24.03;100.00
9717;BME280;4897;43.570;27.832;2023-07-22T04:09:22;98922.09;;;24.27;100.00
9717;BME280;4897;43.570;27.832;2023-07-22T04:11:49;98912.09;;;24.39;100.00
9717;BME280;4897;43.570;27.832;2023-07-22T04:14:16;98920.44;;;24.51;100.00
9717;BME280;4897;43.570;27.832;2023-07-22T04:16:45;98924.63;;;24.72;100.00
9717;BME280;4897;43.570;27.832;2023-07-22T04:19:11;98930.81;;;24.85;100.00
9717;BME280;4897;43.570;27.832;2023-07-22T04:21:38;98906.66;;;25.00;100.00
9717;BME280;4897;43.570;27.832;2023-07-22T04:24:06;98933.03;;;25.31;100.00
9717;BME280;4897;43.570;27.832;2023-07-22T04:26:33;98904.69;;;25.25;100.00
9717;BME280;4897;43.570;27.832;2023-07-22T04:29:00;98900.94;;;25.38;100.00
9717;BME280;4897;43.570;27.832;2023-07-22T04:31:27;98906.03;;;25.34;100.00
9717;BME280;4897;43.570;27.832;2023-07-22T04:33:57;98897.31;;;25.08;100.00
9717;BME280;4897;43.570;27.832;2023-07-22T04:36:24;98883.56;;;24.96;100.00
9717;BME280;4897;43.570;27.832;2023-07-22T04:38:55;98907.66;;;24.88;100.00
9717;BME280;4897;43.570;27.832;2023-07-22T04:41:22;98901.41;;;24.81;100.00
9717;BME280;4897;43.570;27.832;2023-07-22T04:43:50;98875.78;;;24.57;100.00
9717;BME280;4897;43.570;27.832;2023-07-22T04:46:17;98899.19;;;24.71;100.00
9717;BME280;4897;43.570;27.832;2023-07-22T04:48:44;98905.31;;;24.67;100.00
9717;BME280;4897;43.570;27.832;2023-07-22T04:51:12;98888.75;;;24.86;100.00
9717;BME280;4897;43.570;27.832;2023-07-22T04:53:39;98886.91;;;24.98;100.00
9717;BME280;4897;43.570;27.832;2023-07-22T04:56:06;98889.69;;;25.10;100.00
9717;BME280;4897;43.570;27.832;2023-07-22T04:58:33;98883.69;;;25.19;100.00
9717;BME280;4897;43.570;27.832;2023-07-22T05:01:00;98883.38;;;25.27;100.00
9717;BME280;4897;43.570;27.832;2023-07-22T05:03:26;98868.00;;;25.26;100.00
9717;BME280;4897;43.570;27.832;2023-07-22T05:05:53;98862.00;;;25.36;100.00
9717;BME280;4897;43.570;27.832;2023-07-22T05:08:22;98851.81;;;25.43;100.00
9717;BME280;4897;43.570;27.832;2023-07-22T05:10:49;98846.69;;;25.76;100.00
9717;BME280;4897;43.570;27.832;2023-07-22T05:13:16;98847.19;;;25.96;100.00
9717;BME280;4897;43.570;27.832;2023-07-22T05:15:43;98827.09;;;26.14;100.00
9717;BME280;4897;43.570;27.832;2023-07-22T05:18:10;98832.44;;;26.67;100.00
9717;BME280;4897;43.570;27.832;2023-07-22T05:20:38;98831.53;;;27.13;100.00
9717;BME280;4897;43.570;27.832;2023-07-22T05:23:05;98814.97;;;27.36;100.00
9717;BME280;4897;43.570;27.832;2023-07-22T05:25:33;98821.22;;;27.93;100.00
9717;BME280;4897;43.570;27.832;2023-07-22T05:28:00;98797.81;;;27.90;100.00
9717;BME280;4897;43.570;27.832;2023-07-22T05:30:27;98784.81;;;27.69;100.00
9717;BME280;4897;43.570;27.832;2023-07-22T05:32:53;98826.31;;;27.84;100.00
9717;BME280;4897;43.570;27.832;2023-07-22T05:35:20;98828.03;;;27.74;100.00
9717;BME280;4897;43.570;27.832;2023-07-22T05:37:48;98852.66;;;27.68;100.00
9717;BME280;4897;43.570;27.832;2023-07-22T05:40:15;98843.41;;;28.03;100.00
9717;BME280;4897;43.570;27.832;2023-07-22T05:42:47;98829.72;;;28.41;100.00
9717;BME280;4897;43.570;27.832;2023-07-22T05:45:14;98836.56;;;28.38;100.00
9717;BME280;4897;43.570;27.832;2023-07-22T05:47:41;98828.66;;;29.23;100.00
9717;BME280;4897;43.570;27.832;2023-07-22T05:50:09;98823.25;;;29.55;100.00
9717;BME280;4897;43.570;27.832;2023-07-22T05:52:36;98827.81;;;29.45;100.00
9717;BME280;4897;43.570;27.832;2023-07-22T05:55:03;98808.25;;;29.73;100.00
9717;BME280;4897;43.570;27.832;2023-07-22T05:57:31;98813.66;;;29.63;100.00
9717;BME280;4897;43.570;27.832;2023-07-22T05:59:59;98816.34;;;29.31;100.00
9717;BME280;4897;43.570;27.832;2023-07-22T06:02:26;98811.53;;;29.43;100.00
9717;BME280;4897;43.570;27.832;2023-07-22T06:04:53;98800.91;;;29.83;100.00
9717;BME280;4897;43.570;27.832;2023-07-22T06:07:19;98804.78;;;30.19;100.00
9717;BME280;4897;43.570;27.832;2023-07-22T06:09:46;98787.75;;;30.69;100.00
9717;BME280;4897;43.570;27.832;2023-07-22T06:12:13;98788.81;;;30.63;100.00
9717;BME280;4897;43.570;27.832;2023-07-22T06:14:41;98765.09;;;30.67;100.00
9717;BME280;4897;43.570;27.832;2023-07-22T06:17:09;98791.84;;;30.61;100.00
9717;BME280;4897;43.570;27.832;2023-07-22T06:19:36;98802.84;;;30.51;100.00
9717;BME280;4897;43.570;27.832;2023-07-22T06:22:03;98802.56;;;30.53;100.00
9717;BME280;4897;43.570;27.832;2023-07-22T06:24:30;98796.66;;;30.81;100.00
9717;BME280;4897;43.570;27.832;2023-07-22T06:26:57;98792.94;;;30.60;100.00
9717;BME280;4897;43.570;27.832;2023-07-22T06:29:24;98802.41;;;30.74;100.00
9717;BME280;4897;43.570;27.832;2023-07-22T06:31:50;98809.41;;;30.87;100.00
9717;BME280;4897;43.570;27.832;2023-07-22T06:34:24;98815.94;;;31.33;100.00
9717;BME280;4897;43.570;27.832;2023-07-22T06:36:51;98807.00;;;31.11;100.00
9717;BME280;4897;43.570;27.832;2023-07-22T06:39:18;98795.22;;;30.68;100.00
9717;BME280;4897;43.570;27.832;2023-07-22T06:41:45;98628.19;;;28.99;100.00
9717;BME280;4897;43.570;27.832;2023-07-22T06:44:12;98821.69;;;29.91;100.00
9717;BME280;4897;43.570;27.832;2023-07-22T06:46:39;98797.66;;;29.60;100.00
9717;BME280;4897;43.570;27.832;2023-07-22T06:49:06;98820.38;;;29.72;100.00
9717;BME280;4897;43.570;27.832;2023-07-22T06:51:34;98826.94;;;29.92;100.00
9717;BME280;4897;43.570;27.832;2023-07-22T06:54:03;98823.19;;;29.77;100.00
9717;BME280;4897;43.570;27.832;2023-07-22T06:56:30;98827.97;;;29.60;100.00
9717;BME280;4897;43.570;27.832;2023-07-22T06:58:57;98824.88;;;29.78;100.00
9717;BME280;4897;43.570;27.832;2023-07-22T07:01:24;98818.00;;;29.80;100.00
9717;BME280;4897;43.570;27.832;2023-07-22T07:03:51;98776.88;;;29.74;100.00
9717;BME280;4897;43.570;27.832;2023-07-22T07:06:17;98824.81;;;30.05;100.00
9717;BME280;4897;43.570;27.832;2023-07-22T07:08:48;98820.06;;;29.95;100.00
9717;BME280;4897;43.570;27.832;2023-07-22T07:11:15;98829.41;;;29.94;100.00
9717;BME280;4897;43.570;27.832;2023-07-22T07:13:42;98829.59;;;30.14;100.00
9717;BME280;4897;43.570;27.832;2023-07-22T07:16:25;98829.09;;;30.22;100.00
9717;BME280;4897;43.570;27.832;2023-07-22T07:18:57;98816.31;;;30.11;100.00
9717;BME280;4897;43.570;27.832;2023-07-22T07:21:24;98816.44;;;30.26;100.00
9717;BME280;4897;43.570;27.832;2023-07-22T07:23:53;98810.56;;;30.49;100.00
9717;BME280;4897;43.570;27.832;2023-07-22T07:26:20;98756.91;;;30.30;100.00
9717;BME280;4897;43.570;27.832;2023-07-22T07:28:48;98817.31;;;30.73;100.00
9717;BME280;4897;43.570;27.832;2023-07-22T07:31:16;98790.22;;;30.65;100.00
9717;BME280;4897;43.570;27.832;2023-07-22T07:33:43;98815.81;;;30.98;100.00
9717;BME280;4897;43.570;27.832;2023-07-22T07:36:10;98804.69;;;30.88;100.00
9717;BME280;4897;43.570;27.832;2023-07-22T07:38:37;98790.78;;;30.67;100.00
9717;BME280;4897;43.570;27.832;2023-07-22T07:41:09;98797.06;;;31.10;100.00
9717;BME280;4897;43.570;27.832;2023-07-22T07:43:38;98794.84;;;31.02;100.00
9717;BME280;4897;43.570;27.832;2023-07-22T07:46:15;98799.13;;;31.44;100.00
9717;BME280;4897;43.570;27.832;2023-07-22T07:48:44;98778.69;;;31.61;100.00
9717;BME280;4897;43.570;27.832;2023-07-22T07:51:12;98804.97;;;32.49;100.00
9717;BME280;4897;43.570;27.832;2023-07-22T07:53:39;98787.44;;;33.42;100.00
9717;BME280;4897;43.570;27.832;2023-07-22T07:56:06;98780.63;;;34.36;94.58
9717;BME280;4897;43.570;27.832;2023-07-22T07:58:35;98799.28;;;34.59;91.86
9717;BME280;4897;43.570;27.832;2023-07-22T08:01:02;98795.28;;;34.94;85.88
9717;BME280;4897;43.570;27.832;2023-07-22T08:03:29;98798.19;;;35.50;80.96
9717;BME280;4897;43.570;27.832;2023-07-22T08:05:56;98791.72;;;35.73;74.83
9717;BME280;4897;43.570;27.832;2023-07-22T08:08:23;98785.28;;;35.91;75.32
9717;BME280;4897;43.570;27.832;2023-07-22T08:10:58;98776.78;;;36.01;70.74
9717;BME280;4897;43.570;27.832;2023-07-22T08:13:25;98799.78;;;36.39;65.81
9717;BME280;4897;43.570;27.832;2023-07-22T08:15:53;98796.59;;;37.05;66.00
9717;BME280;4897;43.570;27.832;2023-07-22T08:18:23;98790.91;;;36.37;57.67
9717;BME280;4897;43.570;27.832;2023-07-22T08:20:53;98800.28;;;36.86;58.24
9717;BME280;4897;43.570;27.832;2023-07-22T08:23:25;98784.81;;;35.52;57.01
9717;BME280;4897;43.570;27.832;2023-07-22T08:25:52;98773.66;;;36.80;54.58
9717;BME280;4897;43.570;27.832;2023-07-22T08:28:19;98796.31;;;37.55;54.85
9717;BME280;4897;43.570;27.832;2023-07-22T08:30:47;98798.94;;;37.25;53.33
9717;BME280;4897;43.570;27.832;2023-07-22T08:33:16;98798.56;;;37.04;54.69
9717;BME280;4897;43.570;27.832;2023-07-22T08:35:43;98811.34;;;36.00;60.21
9717;BME280;4897;43.570;27.832;2023-07-22T08:38:10;98795.75;;;35.43;62.78
9717;BME280;4897;43.570;27.832;2023-07-22T08:40:40;98790.28;;;36.26;55.73
9717;BME280;4897;43.570;27.832;2023-07-22T08:43:08;98772.69;;;37.39;52.81
9717;BME280;4897;43.570;27.832;2023-07-22T08:45:36;98789.25;;;37.36;51.63
9717;BME280;4897;43.570;27.832;2023-07-22T08:48:04;98746.72;;;36.62;53.54
9717;BME280;4897;43.570;27.832;2023-07-22T08:50:41;98786.22;;;37.32;53.22
9717;BME280;4897;43.570;27.832;2023-07-22T08:53:10;98780.78;;;38.74;47.89
9717;BME280;4897;43.570;27.832;2023-07-22T08:55:37;98784.16;;;39.66;44.86
9717;BME280;4897;43.570;27.832;2023-07-22T08:58:06;98781.94;;;39.29;45.20
9717;BME280;4897;43.570;27.832;2023-07-22T09:00:34;98790.72;;;39.70;43.15
9717;BME280;4897;43.570;27.832;2023-07-22T09:03:01;98783.31;;;39.74;41.90
9717;BME280;4897;43.570;27.832;2023-07-22T09:05:31;98776.75;;;40.13;41.27
9717;BME280;4897;43.570;27.832;2023-07-22T09:08:01;98764.25;;;40.65;40.17
9717;BME280;4897;43.570;27.832;2023-07-22T09:10:28;98779.50;;;40.85;39.15
9717;BME280;4897;43.570;27.832;2023-07-22T09:12:56;98771.31;;;39.82;41.30
9717;BME280;4897;43.570;27.832;2023-07-22T09:15:23;98754.84;;;39.55;40.42
9717;BME280;4897;43.570;27.832;2023-07-22T09:17:51;98772.91;;;39.32;41.35
9717;BME280;4897;43.570;27.832;2023-07-22T09:20:19;98764.06;;;40.07;40.73
9717;BME280;4897;43.570;27.832;2023-07-22T09:22:48;98763.16;;;39.21;41.18
9717;BME280;4897;43.570;27.832;2023-07-22T09:25:18;98783.66;;;39.90;39.79
9717;BME280;4897;43.570;27.832;2023-07-22T09:27:50;98749.06;;;40.12;39.87
9717;BME280;4897;43.570;27.832;2023-07-22T09:30:22;98749.19;;;40.24;39.61
9717;BME280;4897;43.570;27.832;2023-07-22T09:32:50;98758.28;;;40.67;38.76
9717;BME280;4897;43.570;27.832;2023-07-22T09:35:17;98766.97;;;40.28;35.49
9717;BME280;4897;43.570;27.832;2023-07-22T09:37:44;98744.63;;;40.02;34.50
9717;BME280;4897;43.570;27.832;2023-07-22T09:40:19;98768.53;;;39.74;34.66
9717;BME280;4897;43.570;27.832;2023-07-22T09:42:50;98729.78;;;39.50;34.54
9717;BME280;4897;43.570;27.832;2023-07-22T09:45:18;98741.78;;;39.93;34.29
9717;BME280;4897;43.570;27.832;2023-07-22T09:47:46;98744.63;;;40.02;34.49
9717;BME280;4897;43.570;27.832;2023-07-22T09:50:15;98741.47;;;40.12;34.04
9717;BME280;4897;43.570;27.832;2023-07-22T09:52:46;98739.22;;;40.52;34.35
9717;BME280;4897;43.570;27.832;2023-07-22T09:55:15;98752.94;;;40.45;33.84
9717;BME280;4897;43.570;27.832;2023-07-22T09:57:46;98730.66;;;41.15;33.86
9717;BME280;4897;43.570;27.832;2023-07-22T10:00:14;98726.41;;;42.57;31.89
9717;BME280;4897;43.570;27.832;2023-07-22T10:02:43;98734.59;;;42.50;31.71
9717;BME280;4897;43.570;27.832;2023-07-22T10:05:13;98713.47;;;42.32;31.50
9717;BME280;4897;43.570;27.832;2023-07-22T10:07:46;98737.09;;;41.45;32.55
9717;BME280;4897;43.570;27.832;2023-07-22T10:10:15;98749.34;;;41.61;32.17
9717;BME280;4897;43.570;27.832;2023-07-22T10:12:43;98732.03;;;41.38;31.86
9717;BME280;4897;43.570;27.832;2023-07-22T10:15:13;98742.06;;;41.39;31.73
9717;BME280;4897;43.570;27.832;2023-07-22T10:17:40;98741.06;;;41.65;32.00
9717;BME280;4897;43.570;27.832;2023-07-22T10:20:08;98691.94;;;41.71;31.41
9717;BME280;4897;43.570;27.832;2023-07-22T10:22:41;98731.13;;;41.47;32.35
9717;BME280;4897;43.570;27.832;2023-07-22T10:25:08;98763.03;;;40.84;32.94
9717;BME280;4897;43.570;27.832;2023-07-22T10:27:36;98736.78;;;40.88;32.94
9717;BME280;4897;43.570;27.832;2023-07-22T10:30:06;98748.13;;;40.54;32.67
9717;BME280;4897;43.570;27.832;2023-07-22T10:32:36;98734.00;;;41.38;31.67
9717;BME280;4897;43.570;27.832;2023-07-22T10:35:05;98728.41;;;42.12;31.45
9717;BME280;4897;43.570;27.832;2023-07-22T10:37:38;98739.84;;;41.74;31.70
9717;BME280;4897;43.570;27.832;2023-07-22T10:40:20;98697.94;;;40.15;32.80
9717;BME280;4897;43.570;27.832;2023-07-22T10:42:58;98738.81;;;40.71;33.00
9717;BME280;4897;43.570;27.832;2023-07-22T10:45:26;98735.84;;;41.34;32.12
9717;BME280;4897;43.570;27.832;2023-07-22T10:48:06;98727.63;;;41.50;32.71
9717;BME280;4897;43.570;27.832;2023-07-22T10:50:41;98745.34;;;41.41;32.21
9717;BME280;4897;43.570;27.832;2023-07-22T10:53:12;98726.63;;;42.64;31.34
9717;BME280;4897;43.570;27.832;2023-07-22T10:56:03;98745.50;;;43.48;30.04
9717;BME280;4897;43.570;27.832;2023-07-22T10:58:31;98740.28;;;41.35;32.04
9717;BME280;4897;43.570;27.832;2023-07-22T11:01:22;98741.09;;;41.35;32.07
9717;BME280;4897;43.570;27.832;2023-07-22T11:04:21;98734.63;;;41.85;31.51
9717;BME280;4897;43.570;27.832;2023-07-22T11:06:53;98736.41;;;41.69;31.00
9717;BME280;4897;43.570;27.832;2023-07-22T11:09:39;98740.84;;;41.90;30.79
9717;BME280;4897;43.570;27.832;2023-07-22T11:12:12;98732.31;;;41.99;30.58
9717;BME280;4897;43.570;27.832;2023-07-22T11:14:46;98756.91;;;40.90;31.66
9717;BME280;4897;43.570;27.832;2023-07-22T11:17:14;98747.09;;;39.61;32.67
9717;BME280;4897;43.570;27.832;2023-07-22T11:19:42;98744.63;;;40.65;31.78
9717;BME280;4897;43.570;27.832;2023-07-22T11:22:10;98731.38;;;41.95;30.80
9717;BME280;4897;43.570;27.832;2023-07-22T11:24:37;98727.94;;;42.10;29.93
9717;BME280;4897;43.570;27.832;2023-07-22T11:27:05;98734.88;;;41.51;30.82
9717;BME280;4897;43.570;27.832;2023-07-22T11:29:33;98721.22;;;41.70;30.77
9717;BME280;4897;43.570;27.832;2023-07-22T11:32:03;98721.63;;;42.25;29.76
9717;BME280;4897;43.570;27.832;2023-07-22T11:34:30;98743.75;;;42.47;29.10
9717;BME280;4897;43.570;27.832;2023-07-22T11:36:58;98725.19;;;42.34;29.43
9717;BME280;4897;43.570;27.832;2023-07-22T11:39:26;98746.72;;;41.77;30.23
9717;BME280;4897;43.570;27.832;2023-07-22T11:41:59;98740.28;;;41.35;29.91
9717;BME280;4897;43.570;27.832;2023-07-22T11:44:28;98740.72;;;40.87;31.06
9717;BME280;4897;43.570;27.832;2023-07-22T11:46:57;98725.97;;;41.49;30.47
9717;BME280;4897;43.570;27.832;2023-07-22T11:49:26;98727.13;;;42.66;29.51
9717;BME280;4897;43.570;27.832;2023-07-22T11:51:59;98732.97;;;41.84;30.35
9717;BME280;4897;43.570;27.832;2023-07-22T11:54:27;98719.97;;;42.81;29.44
9717;BME280;4897;43.570;27.832;2023-07-22T11:56:55;98723.97;;;42.56;29.62
9717;BME280;4897;43.570;27.832;2023-07-22T11:59:36;98719.78;;;42.29;29.16
9717;BME280;4897;43.570;27.832;2023-07-22T12:02:04;98716.72;;;42.91;29.35
9717;BME280;4897;43.570;27.832;2023-07-22T12:04:31;98727.25;;;42.58;28.58
9717;BME280;4897;43.570;27.832;2023-07-22T12:07:03;98715.88;;;43.03;28.46
9717;BME280;4897;43.570;27.832;2023-07-22T12:09:30;98712.16;;;42.86;28.45
9717;BME280;4897;43.570;27.832;2023-07-22T12:11:59;98726.31;;;43.02;28.28
9717;BME280;4897;43.570;27.832;2023-07-22T12:14:35;98719.38;;;42.63;28.94
9717;BME280;4897;43.570;27.832;2023-07-22T12:17:02;98728.66;;;42.31;29.01
9717;BME280;4897;43.570;27.832;2023-07-22T12:19:29;98722.22;;;43.00;28.33
9717;BME280;4897;43.570;27.832;2023-07-22T12:21:56;98718.66;;;43.15;27.75
9717;BME280;4897;43.570;27.832;2023-07-22T12:24:26;98716.56;;;42.51;28.27
9717;BME280;4897;43.570;27.832;2023-07-22T12:26:53;98719.56;;;42.01;29.06
9717;BME280;4897;43.570;27.832;2023-07-22T12:29:20;98726.47;;;41.71;29.67
9717;BME280;4897;43.570;27.832;2023-07-22T12:31:47;98724.22;;;42.18;28.68
9717;BME280;4897;43.570;27.832;2023-07-22T12:34:14;98687.47;;;42.02;28.70
9717;BME280;4897;43.570;27.832;2023-07-22T12:36:41;98704.66;;;42.34;28.76
9717;BME280;4897;43.570;27.832;2023-07-22T12:39:08;98712.50;;;42.16;29.24
9717;BME280;4897;43.570;27.832;2023-07-22T12:41:37;98719.13;;;41.79;29.13
9717;BME280;4897;43.570;27.832;2023-07-22T12:44:04;98710.22;;;41.77;29.27
9717;BME280;4897;43.570;27.832;2023-07-22T12:46:31;98709.72;;;41.95;28.80
9717;BME280;4897;43.570;27.832;2023-07-22T12:48:58;98704.84;;;43.10;28.24
9717;BME280;4897;43.570;27.832;2023-07-22T12:51:26;98699.47;;;43.29;27.58
9717;BME280;4897;43.570;27.832;2023-07-22T12:53:53;98708.28;;;42.91;28.07
9717;BME280;4897;43.570;27.832;2023-07-22T12:56:20;98709.19;;;42.71;27.45
9717;BME280;4897;43.570;27.832;2023-07-22T12:58:48;98694.72;;;42.36;28.27
9717;BME280;4897;43.570;27.832;2023-07-22T13:01:15;98640.28;;;41.63;29.00
9717;BME280;4897;43.570;27.832;2023-07-22T13:03:41;98713.03;;;42.54;28.32
9717;BME280;4897;43.570;27.832;2023-07-22T13:06:08;98700.38;;;42.48;28.61
9717;BME280;4897;43.570;27.832;2023-07-22T13:08:35;98717.88;;;42.66;29.08
9717;BME280;4897;43.570;27.832;2023-07-22T13:11:05;98716.22;;;43.37;28.42